sensor_id;sensor_type;location;lat;lon;timestamp;P1;durP1;ratioP1;P2;durP2;ratioP2
3379;SDS011;1703;51.964;7.642;2023-03-23T00:01:24;7.70;;;5.83;;
3379;SDS011;1703;51.964;7.642;2023-03-23T00:03:55;5.90;;;5.03;;
3379;SDS011;1703;51.964;7.642;2023-03-23T00:06:23;7.50;;;5.50;;
3379;SDS011;1703;51.964;7.642;2023-03-23T00:08:52;7.97;;;6.27;;
3379;SDS011;1703;51.964;7.642;2023-03-23T00:11:25;9.03;;;5.67;;
3379;SDS011;1703;51.964;7.642;2023-03-23T00:13:55;10.20;;;6.00;;
3379;SDS011;1703;51.964;7.642;2023-03-23T00:16:26;11.00;;;5.70;;
3379;SDS011;1703;51.964;7.642;2023-03-23T00:18:55;9.97;;;5.90;;
3379;SDS011;1703;51.964;7.642;2023-03-23T00:21:24;8.30;;;6.00;;
3379;SDS011;1703;51.964;7.642;2023-03-23T00:24:00;12.03;;;6.07;;
3379;SDS011;1703;51.964;7.642;2023-03-23T00:26:29;11.37;;;6.50;;
3379;SDS011;1703;51.964;7.642;2023-03-23T00:29:00;10.83;;;7.17;;
3379;SDS011;1703;51.964;7.642;2023-03-23T00:31:28;11.63;;;5.90;;
3379;SDS011;1703;51.964;7.642;2023-03-23T00:33:56;10.03;;;5.87;;
3379;SDS011;1703;51.964;7.642;2023-03-23T00:36:26;8.00;;;6.47;;
3379;SDS011;1703;51.964;7.642;2023-03-23T00:38:54;10.53;;;5.60;;
3379;SDS011;1703;51.964;7.642;2023-03-23T00:41:24;8.47;;;5.10;;
3379;SDS011;1703;51.964;7.642;2023-03-23T00:43:53;14.63;;;4.57;;
3379;SDS011;1703;51.964;7.642;2023-03-23T00:46:22;8.13;;;4.80;;
3379;SDS011;1703;51.964;7.642;2023-03-23T00:48:49;5.60;;;4.90;;
3379;SDS011;1703;51.964;7.642;2023-03-23T00:51:17;9.33;;;5.53;;
3379;SDS011;1703;51.964;7.642;2023-03-23T00:53:44;6.40;;;4.90;;
3379;SDS011;1703;51.964;7.642;2023-03-23T00:56:12;7.67;;;5.13;;
3379;SDS011;1703;51.964;7.642;2023-03-23T00:58:40;6.00;;;4.60;;
3379;SDS011;1703;51.964;7.642;2023-03-23T01:01:06;8.37;;;4.40;;
3379;SDS011;1703;51.964;7.642;2023-03-23T01:03:35;6.07;;;5.30;;
3379;SDS011;1703;51.964;7.642;2023-03-23T01:06:06;5.83;;;5.17;;
3379;SDS011;1703;51.964;7.642;2023-03-23T01:08:37;9.93;;;4.83;;
3379;SDS011;1703;51.964;7.642;2023-03-23T01:11:10;7.90;;;5.23;;
3379;SDS011;1703;51.964;7.642;2023-03-23T01:13:39;6.07;;;4.37;;
3379;SDS011;1703;51.964;7.642;2023-03-23T01:16:06;5.07;;;4.57;;
3379;SDS011;1703;51.964;7.642;2023-03-23T01:18:33;6.53;;;5.30;;
3379;SDS011;1703;51.964;7.642;2023-03-23T01:21:05;7.43;;;4.70;;
3379;SDS011;1703;51.964;7.642;2023-03-23T01:23:33;6.90;;;4.40;;
3379;SDS011;1703;51.964;7.642;2023-03-23T01:26:03;13.07;;;4.20;;
3379;SDS011;1703;51.964;7.642;2023-03-23T01:28:32;5.83;;;4.13;;
3379;SDS011;1703;51.964;7.642;2023-03-23T01:31:00;4.67;;;3.70;;
3379;SDS011;1703;51.964;7.642;2023-03-23T01:33:28;9.37;;;4.27;;
3379;SDS011;1703;51.964;7.642;2023-03-23T01:35:56;8.77;;;4.67;;
3379;SDS011;1703;51.964;7.642;2023-03-23T01:38:23;6.30;;;3.40;;
3379;SDS011;1703;51.964;7.642;2023-03-23T01:40:50;10.03;;;4.30;;
3379;SDS011;1703;51.964;7.642;2023-03-23T01:43:17;3.97;;;3.60;;
3379;SDS011;1703;51.964;7.642;2023-03-23T01:45:44;8.60;;;4.17;;
3379;SDS011;1703;51.964;7.642;2023-03-23T01:48:13;5.67;;;3.77;;
3379;SDS011;1703;51.964;7.642;2023-03-23T01:50:48;5.70;;;4.13;;
3379;SDS011;1703;51.964;7.642;2023-03-23T01:53:19;4.10;;;3.63;;
3379;SDS011;1703;51.964;7.642;2023-03-23T01:55:48;8.90;;;2.60;;
3379;SDS011;1703;51.964;7.642;2023-03-23T01:58:18;6.60;;;4.23;;
3379;SDS011;1703;51.964;7.642;2023-03-23T02:00:51;7.87;;;4.50;;
3379;SDS011;1703;51.964;7.642;2023-03-23T02:03:19;6.30;;;4.23;;
3379;SDS011;1703;51.964;7.642;2023-03-23T02:05:48;4.80;;;4.30;;
3379;SDS011;1703;51.964;7.642;2023-03-23T02:08:26;5.83;;;3.00;;
3379;SDS011;1703;51.964;7.642;2023-03-23T02:10:55;5.63;;;3.30;;
3379;SDS011;1703;51.964;7.642;2023-03-23T02:13:22;6.80;;;3.23;;
3379;SDS011;1703;51.964;7.642;2023-03-23T02:15:51;4.20;;;3.13;;
3379;SDS011;1703;51.964;7.642;2023-03-23T02:18:36;7.40;;;3.43;;
3379;SDS011;1703;51.964;7.642;2023-03-23T02:24:41;5.30;;;3.50;;
3379;SDS011;1703;51.964;7.642;2023-03-23T02:27:26;7.37;;;2.60;;
3379;SDS011;1703;51.964;7.642;2023-03-23T02:30:31;3.73;;;2.10;;
3379;SDS011;1703;51.964;7.642;2023-03-23T02:33:15;3.63;;;2.87;;
3379;SDS011;1703;51.964;7.642;2023-03-23T02:35:56;4.80;;;3.20;;
3379;SDS011;1703;51.964;7.642;2023-03-23T02:38:28;3.80;;;3.13;;
3379;SDS011;1703;51.964;7.642;2023-03-23T02:41:00;4.60;;;3.20;;
3379;SDS011;1703;51.964;7.642;2023-03-23T02:43:30;5.13;;;3.23;;
3379;SDS011;1703;51.964;7.642;2023-03-23T02:46:00;3.00;;;2.80;;
3379;SDS011;1703;51.964;7.642;2023-03-23T02:48:32;8.93;;;3.10;;
3379;SDS011;1703;51.964;7.642;2023-03-23T02:51:00;3.30;;;2.70;;
3379;SDS011;1703;51.964;7.642;2023-03-23T02:53:29;3.43;;;2.53;;
3379;SDS011;1703;51.964;7.642;2023-03-23T02:55:59;3.80;;;3.30;;
3379;SDS011;1703;51.964;7.642;2023-03-23T02:58:28;2.73;;;2.10;;
3379;SDS011;1703;51.964;7.642;2023-03-23T03:00:56;3.73;;;2.33;;
3379;SDS011;1703;51.964;7.642;2023-03-23T03:03:25;9.07;;;3.47;;
3379;SDS011;1703;51.964;7.642;2023-03-23T03:05:58;2.70;;;2.30;;
3379;SDS011;1703;51.964;7.642;2023-03-23T03:08:37;4.40;;;3.00;;
3379;SDS011;1703;51.964;7.642;2023-03-23T03:11:12;4.47;;;2.53;;
3379;SDS011;1703;51.964;7.642;2023-03-23T03:13:44;2.90;;;2.43;;
3379;SDS011;1703;51.964;7.642;2023-03-23T03:16:16;2.93;;;2.10;;
3379;SDS011;1703;51.964;7.642;2023-03-23T03:18:50;4.47;;;2.10;;
3379;SDS011;1703;51.964;7.642;2023-03-23T03:21:23;2.23;;;2.03;;
3379;SDS011;1703;51.964;7.642;2023-03-23T03:23:56;1.90;;;1.80;;
3379;SDS011;1703;51.964;7.642;2023-03-23T03:26:27;2.20;;;2.00;;
3379;SDS011;1703;51.964;7.642;2023-03-23T03:29:00;3.10;;;2.10;;
3379;SDS011;1703;51.964;7.642;2023-03-23T03:31:36;3.03;;;1.93;;
3379;SDS011;1703;51.964;7.642;2023-03-23T03:34:05;2.07;;;1.80;;
3379;SDS011;1703;51.964;7.642;2023-03-23T03:36:36;2.87;;;1.80;;
3379;SDS011;1703;51.964;7.642;2023-03-23T03:39:08;4.57;;;1.77;;
3379;SDS011;1703;51.964;7.642;2023-03-23T03:41:37;2.00;;;1.47;;
3379;SDS011;1703;51.964;7.642;2023-03-23T03:44:04;2.20;;;1.60;;
3379;SDS011;1703;51.964;7.642;2023-03-23T03:46:32;3.87;;;2.03;;
3379;SDS011;1703;51.964;7.642;2023-03-23T03:48:59;7.57;;;2.00;;
3379;SDS011;1703;51.964;7.642;2023-03-23T03:51:28;2.60;;;2.00;;
3379;SDS011;1703;51.964;7.642;2023-03-23T03:53:57;2.50;;;2.30;;
3379;SDS011;1703;51.964;7.642;2023-03-23T03:56:24;4.50;;;2.37;;
3379;SDS011;1703;51.964;7.642;2023-03-23T03:59:04;3.53;;;2.83;;
3379;SDS011;1703;51.964;7.642;2023-03-23T04:01:46;3.20;;;2.20;;
3379;SDS011;1703;51.964;7.642;2023-03-23T04:04:19;3.43;;;2.43;;
3379;SDS011;1703;51.964;7.642;2023-03-23T04:06:45;2.27;;;2.07;;
3379;SDS011;1703;51.964;7.642;2023-03-23T04:09:15;4.27;;;2.70;;
3379;SDS011;1703;51.964;7.642;2023-03-23T04:11:42;4.50;;;2.30;;
3379;SDS011;1703;51.964;7.642;2023-03-23T04:14:32;2.70;;;2.30;;
3379;SDS011;1703;51.964;7.642;2023-03-23T04:16:59;2.63;;;2.43;;
3379;SDS011;1703;51.964;7.642;2023-03-23T04:19:26;9.00;;;2.13;;
3379;SDS011;1703;51.964;7.642;2023-03-23T04:21:58;2.07;;;1.93;;
3379;SDS011;1703;51.964;7.642;2023-03-23T04:24:29;4.23;;;2.50;;
3379;SDS011;1703;51.964;7.642;2023-03-23T04:26:59;1.80;;;1.67;;
3379;SDS011;1703;51.964;7.642;2023-03-23T04:29:28;2.70;;;2.03;;
3379;SDS011;1703;51.964;7.642;2023-03-23T04:32:14;2.30;;;2.10;;
3379;SDS011;1703;51.964;7.642;2023-03-23T04:34:47;4.23;;;2.27;;
3379;SDS011;1703;51.964;7.642;2023-03-23T04:37:16;6.03;;;2.50;;
3379;SDS011;1703;51.964;7.642;2023-03-23T04:39:44;3.40;;;2.33;;
3379;SDS011;1703;51.964;7.642;2023-03-23T04:42:13;2.57;;;2.20;;
3379;SDS011;1703;51.964;7.642;2023-03-23T04:44:53;2.57;;;1.83;;
3379;SDS011;1703;51.964;7.642;2023-03-23T04:47:27;2.23;;;2.03;;
3379;SDS011;1703;51.964;7.642;2023-03-23T04:49:55;2.70;;;1.60;;
3379;SDS011;1703;51.964;7.642;2023-03-23T04:52:33;1.93;;;1.83;;
3379;SDS011;1703;51.964;7.642;2023-03-23T04:55:05;2.40;;;2.20;;
3379;SDS011;1703;51.964;7.642;2023-03-23T04:57:34;2.70;;;1.93;;
3379;SDS011;1703;51.964;7.642;2023-03-23T05:00:24;9.57;;;2.43;;
3379;SDS011;1703;51.964;7.642;2023-03-23T05:02:54;3.57;;;1.60;;
3379;SDS011;1703;51.964;7.642;2023-03-23T05:05:24;2.13;;;2.03;;
3379;SDS011;1703;51.964;7.642;2023-03-23T05:07:53;1.83;;;1.47;;
3379;SDS011;1703;51.964;7.642;2023-03-23T05:10:24;3.33;;;2.30;;
3379;SDS011;1703;51.964;7.642;2023-03-23T05:12:54;5.83;;;2.20;;
3379;SDS011;1703;51.964;7.642;2023-03-23T05:15:22;3.80;;;2.10;;
3379;SDS011;1703;51.964;7.642;2023-03-23T05:17:51;3.47;;;2.23;;
3379;SDS011;1703;51.964;7.642;2023-03-23T05:20:19;1.90;;;1.70;;
3379;SDS011;1703;51.964;7.642;2023-03-23T05:22:49;4.80;;;2.10;;
3379;SDS011;1703;51.964;7.642;2023-03-23T05:25:21;2.20;;;2.00;;
3379;SDS011;1703;51.964;7.642;2023-03-23T05:27:58;2.40;;;2.20;;
3379;SDS011;1703;51.964;7.642;2023-03-23T05:30:45;2.30;;;2.10;;
3379;SDS011;1703;51.964;7.642;2023-03-23T05:33:14;2.93;;;2.37;;
3379;SDS011;1703;51.964;7.642;2023-03-23T05:35:45;3.83;;;2.33;;
3379;SDS011;1703;51.964;7.642;2023-03-23T05:38:14;4.40;;;3.30;;
3379;SDS011;1703;51.964;7.642;2023-03-23T05:40:43;4.90;;;2.43;;
3379;SDS011;1703;51.964;7.642;2023-03-23T05:43:15;2.43;;;2.33;;
3379;SDS011;1703;51.964;7.642;2023-03-23T05:46:00;3.27;;;3.00;;
3379;SDS011;1703;51.964;7.642;2023-03-23T05:48:28;2.63;;;2.30;;
3379;SDS011;1703;51.964;7.642;2023-03-23T05:50:55;3.57;;;3.27;;
3379;SDS011;1703;51.964;7.642;2023-03-23T05:53:23;2.60;;;2.40;;
3379;SDS011;1703;51.964;7.642;2023-03-23T05:55:52;2.90;;;2.70;;
3379;SDS011;1703;51.964;7.642;2023-03-23T05:58:29;6.57;;;3.07;;
3379;SDS011;1703;51.964;7.642;2023-03-23T06:00:56;2.40;;;2.20;;
3379;SDS011;1703;51.964;7.642;2023-03-23T06:03:27;3.20;;;2.90;;
3379;SDS011;1703;51.964;7.642;2023-03-23T06:06:06;5.70;;;3.03;;
3379;SDS011;1703;51.964;7.642;2023-03-23T06:08:46;3.77;;;2.40;;
3379;SDS011;1703;51.964;7.642;2023-03-23T06:11:16;3.00;;;2.73;;
3379;SDS011;1703;51.964;7.642;2023-03-23T06:13:56;3.40;;;2.67;;
3379;SDS011;1703;51.964;7.642;2023-03-23T06:16:23;3.83;;;3.00;;
3379;SDS011;1703;51.964;7.642;2023-03-23T06:18:52;5.70;;;2.47;;
3379;SDS011;1703;51.964;7.642;2023-03-23T06:21:29;3.43;;;2.50;;
3379;SDS011;1703;51.964;7.642;2023-03-23T06:24:17;2.73;;;2.53;;
3379;SDS011;1703;51.964;7.642;2023-03-23T06:26:44;4.50;;;2.50;;
3379;SDS011;1703;51.964;7.642;2023-03-23T06:29:17;2.63;;;2.43;;
3379;SDS011;1703;51.964;7.642;2023-03-23T06:31:51;6.83;;;2.70;;
3379;SDS011;1703;51.964;7.642;2023-03-23T06:34:20;2.97;;;2.67;;
3379;SDS011;1703;51.964;7.642;2023-03-23T06:37:16;7.60;;;3.50;;
3379;SDS011;1703;51.964;7.642;2023-03-23T06:40:08;3.77;;;2.50;;
3379;SDS011;1703;51.964;7.642;2023-03-23T06:42:40;2.47;;;2.27;;
3379;SDS011;1703;51.964;7.642;2023-03-23T06:45:31;3.30;;;2.80;;
3379;SDS011;1703;51.964;7.642;2023-03-23T06:48:25;4.47;;;2.30;;
3379;SDS011;1703;51.964;7.642;2023-03-23T06:50:51;4.50;;;2.50;;
3379;SDS011;1703;51.964;7.642;2023-03-23T06:53:20;6.63;;;3.17;;
3379;SDS011;1703;51.964;7.642;2023-03-23T06:55:49;4.10;;;2.60;;
3379;SDS011;1703;51.964;7.642;2023-03-23T06:58:16;4.50;;;2.97;;
3379;SDS011;1703;51.964;7.642;2023-03-23T07:00:44;3.37;;;2.90;;
3379;SDS011;1703;51.964;7.642;2023-03-23T07:03:14;3.70;;;3.23;;
3379;SDS011;1703;51.964;7.642;2023-03-23T07:05:45;4.57;;;2.40;;
3379;SDS011;1703;51.964;7.642;2023-03-23T07:08:12;5.13;;;3.30;;
3379;SDS011;1703;51.964;7.642;2023-03-23T07:10:50;6.47;;;3.50;;
3379;SDS011;1703;51.964;7.642;2023-03-23T07:13:21;8.73;;;3.30;;
3379;SDS011;1703;51.964;7.642;2023-03-23T07:15:54;4.47;;;3.63;;
3379;SDS011;1703;51.964;7.642;2023-03-23T07:18:22;3.00;;;2.37;;
3379;SDS011;1703;51.964;7.642;2023-03-23T07:20:51;5.40;;;3.20;;
3379;SDS011;1703;51.964;7.642;2023-03-23T07:23:22;5.30;;;3.60;;
3379;SDS011;1703;51.964;7.642;2023-03-23T07:25:57;5.03;;;3.97;;
3379;SDS011;1703;51.964;7.642;2023-03-23T07:28:31;3.43;;;2.53;;
3379;SDS011;1703;51.964;7.642;2023-03-23T07:31:06;5.37;;;3.23;;
3379;SDS011;1703;51.964;7.642;2023-03-23T07:33:34;5.47;;;2.97;;
3379;SDS011;1703;51.964;7.642;2023-03-23T07:36:02;5.93;;;3.50;;
3379;SDS011;1703;51.964;7.642;2023-03-23T07:38:29;7.10;;;2.70;;
3379;SDS011;1703;51.964;7.642;2023-03-23T07:40:57;4.73;;;3.07;;
3379;SDS011;1703;51.964;7.642;2023-03-23T07:43:24;6.00;;;3.13;;
3379;SDS011;1703;51.964;7.642;2023-03-23T07:46:21;2.67;;;2.43;;
3379;SDS011;1703;51.964;7.642;2023-03-23T07:48:59;4.60;;;2.60;;
3379;SDS011;1703;51.964;7.642;2023-03-23T07:51:34;5.03;;;2.80;;
3379;SDS011;1703;51.964;7.642;2023-03-23T07:54:03;5.70;;;3.07;;
3379;SDS011;1703;51.964;7.642;2023-03-23T07:56:55;2.90;;;2.60;;
3379;SDS011;1703;51.964;7.642;2023-03-23T07:59:25;6.93;;;3.23;;
3379;SDS011;1703;51.964;7.642;2023-03-23T08:01:57;9.30;;;3.50;;
3379;SDS011;1703;51.964;7.642;2023-03-23T08:04:32;3.93;;;2.73;;
3379;SDS011;1703;51.964;7.642;2023-03-23T08:07:20;3.73;;;2.90;;
3379;SDS011;1703;51.964;7.642;2023-03-23T08:10:06;5.67;;;2.67;;
3379;SDS011;1703;51.964;7.642;2023-03-23T08:13:11;4.90;;;2.57;;
3379;SDS011;1703;51.964;7.642;2023-03-23T08:15:58;4.27;;;2.80;;
3379;SDS011;1703;51.964;7.642;2023-03-23T08:18:59;5.20;;;3.00;;
3379;SDS011;1703;51.964;7.642;2023-03-23T08:21:34;3.83;;;2.27;;
3379;SDS011;1703;51.964;7.642;2023-03-23T08:24:02;5.27;;;2.90;;
3379;SDS011;1703;51.964;7.642;2023-03-23T08:26:50;9.90;;;3.47;;
3379;SDS011;1703;51.964;7.642;2023-03-23T08:29:36;5.63;;;2.93;;
3379;SDS011;1703;51.964;7.642;2023-03-23T08:32:21;6.47;;;2.63;;
3379;SDS011;1703;51.964;7.642;2023-03-23T08:35:09;6.97;;;2.80;;
3379;SDS011;1703;51.964;7.642;2023-03-23T08:37:37;5.37;;;2.90;;
3379;SDS011;1703;51.964;7.642;2023-03-23T08:40:41;6.17;;;2.23;;
3379;SDS011;1703;51.964;7.642;2023-03-23T08:43:27;4.60;;;2.53;;
3379;SDS011;1703;51.964;7.642;2023-03-23T08:46:21;6.13;;;2.93;;
3379;SDS011;1703;51.964;7.642;2023-03-23T08:49:07;8.27;;;3.13;;
3379;SDS011;1703;51.964;7.642;2023-03-23T08:52:02;4.30;;;2.67;;
3379;SDS011;1703;51.964;7.642;2023-03-23T08:54:47;5.27;;;2.50;;
3379;SDS011;1703;51.964;7.642;2023-03-23T08:57:30;2.50;;;2.13;;
3379;SDS011;1703;51.964;7.642;2023-03-23T09:00:22;3.33;;;2.03;;
3379;SDS011;1703;51.964;7.642;2023-03-23T09:03:12;3.80;;;2.40;;
3379;SDS011;1703;51.964;7.642;2023-03-23T09:05:57;8.13;;;3.10;;
3379;SDS011;1703;51.964;7.642;2023-03-23T09:08:33;6.30;;;2.30;;
3379;SDS011;1703;51.964;7.642;2023-03-23T09:11:00;8.63;;;3.50;;
3379;SDS011;1703;51.964;7.642;2023-03-23T09:13:28;4.10;;;2.30;;
3379;SDS011;1703;51.964;7.642;2023-03-23T09:15:56;5.70;;;2.70;;
3379;SDS011;1703;51.964;7.642;2023-03-23T09:18:23;7.90;;;2.77;;
3379;SDS011;1703;51.964;7.642;2023-03-23T09:20:51;4.50;;;3.40;;
3379;SDS011;1703;51.964;7.642;2023-03-23T09:23:19;2.80;;;2.10;;
3379;SDS011;1703;51.964;7.642;2023-03-23T09:25:47;2.77;;;2.57;;
3379;SDS011;1703;51.964;7.642;2023-03-23T09:28:14;5.90;;;3.10;;
3379;SDS011;1703;51.964;7.642;2023-03-23T09:30:41;4.23;;;2.10;;
3379;SDS011;1703;51.964;7.642;2023-03-23T09:33:09;4.10;;;2.43;;
3379;SDS011;1703;51.964;7.642;2023-03-23T09:35:36;4.00;;;2.10;;
3379;SDS011;1703;51.964;7.642;2023-03-23T09:38:03;6.53;;;3.20;;
3379;SDS011;1703;51.964;7.642;2023-03-23T09:40:33;3.87;;;3.43;;
3379;SDS011;1703;51.964;7.642;2023-03-23T09:46:13;5.37;;;4.00;;
3379;SDS011;1703;51.964;7.642;2023-03-23T09:48:50;3.33;;;1.87;;
3379;SDS011;1703;51.964;7.642;2023-03-23T09:51:22;2.23;;;1.60;;
3379;SDS011;1703;51.964;7.642;2023-03-23T09:53:58;1.33;;;0.93;;
3379;SDS011;1703;51.964;7.642;2023-03-23T09:56:30;6.47;;;1.23;;
3379;SDS011;1703;51.964;7.642;2023-03-23T09:59:02;2.33;;;0.97;;
3379;SDS011;1703;51.964;7.642;2023-03-23T10:01:36;3.00;;;0.80;;
3379;SDS011;1703;51.964;7.642;2023-03-23T10:04:09;1.13;;;0.70;;
3379;SDS011;1703;51.964;7.642;2023-03-23T10:06:40;1.27;;;0.60;;
3379;SDS011;1703;51.964;7.642;2023-03-23T10:09:08;1.17;;;0.60;;
3379;SDS011;1703;51.964;7.642;2023-03-23T10:11:44;0.70;;;0.60;;
3379;SDS011;1703;51.964;7.642;2023-03-23T10:14:25;2.60;;;0.70;;
3379;SDS011;1703;51.964;7.642;2023-03-23T10:17:00;1.00;;;0.80;;
3379;SDS011;1703;51.964;7.642;2023-03-23T10:19:42;1.17;;;0.90;;
3379;SDS011;1703;51.964;7.642;2023-03-23T10:22:16;2.93;;;0.70;;
3379;SDS011;1703;51.964;7.642;2023-03-23T10:24:50;0.73;;;0.70;;
3379;SDS011;1703;51.964;7.642;2023-03-23T10:27:19;0.90;;;0.70;;
3379;SDS011;1703;51.964;7.642;2023-03-23T10:29:55;1.17;;;1.00;;
3379;SDS011;1703;51.964;7.642;2023-03-23T10:32:36;4.53;;;1.00;;
3379;SDS011;1703;51.964;7.642;2023-03-23T10:35:09;2.53;;;0.60;;
3379;SDS011;1703;51.964;7.642;2023-03-23T10:37:41;1.93;;;0.90;;
3379;SDS011;1703;51.964;7.642;2023-03-23T10:40:13;1.23;;;1.03;;
3379;SDS011;1703;51.964;7.642;2023-03-23T10:42:43;4.00;;;0.90;;
3379;SDS011;1703;51.964;7.642;2023-03-23T10:45:13;2.60;;;1.57;;
3379;SDS011;1703;51.964;7.642;2023-03-23T10:47:45;3.90;;;0.80;;
3379;SDS011;1703;51.964;7.642;2023-03-23T10:50:16;3.83;;;1.23;;
3379;SDS011;1703;51.964;7.642;2023-03-23T10:52:47;1.53;;;0.60;;
3379;SDS011;1703;51.964;7.642;2023-03-23T10:55:19;2.30;;;0.70;;
3379;SDS011;1703;51.964;7.642;2023-03-23T10:57:58;6.10;;;0.93;;
3379;SDS011;1703;51.964;7.642;2023-03-23T11:00:28;1.20;;;1.00;;
3379;SDS011;1703;51.964;7.642;2023-03-23T11:02:58;1.60;;;1.13;;
3379;SDS011;1703;51.964;7.642;2023-03-23T11:05:31;4.43;;;0.80;;
3379;SDS011;1703;51.964;7.642;2023-03-23T11:08:01;2.50;;;1.07;;
3379;SDS011;1703;51.964;7.642;2023-03-23T11:10:34;1.57;;;1.13;;
3379;SDS011;1703;51.964;7.642;2023-03-23T11:13:02;1.93;;;1.40;;
3379;SDS011;1703;51.964;7.642;2023-03-23T11:15:36;5.67;;;1.20;;
3379;SDS011;1703;51.964;7.642;2023-03-23T11:18:05;5.10;;;1.03;;
3379;SDS011;1703;51.964;7.642;2023-03-23T11:20:36;3.00;;;1.43;;
3379;SDS011;1703;51.964;7.642;2023-03-23T11:23:08;7.53;;;1.17;;
3379;SDS011;1703;51.964;7.642;2023-03-23T11:25:52;1.43;;;0.90;;
3379;SDS011;1703;51.964;7.642;2023-03-23T11:28:25;3.33;;;1.53;;
3379;SDS011;1703;51.964;7.642;2023-03-23T11:30:55;7.50;;;1.27;;
3379;SDS011;1703;51.964;7.642;2023-03-23T11:33:24;1.03;;;0.87;;
3379;SDS011;1703;51.964;7.642;2023-03-23T11:35:52;3.03;;;1.47;;
3379;SDS011;1703;51.964;7.642;2023-03-23T11:38:21;2.60;;;1.10;;
3379;SDS011;1703;51.964;7.642;2023-03-23T11:40:51;5.70;;;1.03;;
3379;SDS011;1703;51.964;7.642;2023-03-23T11:43:19;3.07;;;0.90;;
3379;SDS011;1703;51.964;7.642;2023-03-23T11:45:49;3.77;;;1.30;;
3379;SDS011;1703;51.964;7.642;2023-03-23T11:48:26;1.40;;;1.20;;
3379;SDS011;1703;51.964;7.642;2023-03-23T11:50:59;5.27;;;1.10;;
3379;SDS011;1703;51.964;7.642;2023-03-23T11:53:31;1.63;;;1.50;;
3379;SDS011;1703;51.964;7.642;2023-03-23T11:56:12;3.10;;;0.87;;
3379;SDS011;1703;51.964;7.642;2023-03-23T11:58:48;3.57;;;1.00;;
3379;SDS011;1703;51.964;7.642;2023-03-23T12:01:20;2.57;;;1.33;;
3379;SDS011;1703;51.964;7.642;2023-03-23T12:04:03;2.63;;;1.17;;
3379;SDS011;1703;51.964;7.642;2023-03-23T12:06:43;2.90;;;1.13;;
3379;SDS011;1703;51.964;7.642;2023-03-23T12:09:18;2.80;;;1.83;;
3379;SDS011;1703;51.964;7.642;2023-03-23T12:11:57;6.40;;;1.97;;
3379;SDS011;1703;51.964;7.642;2023-03-23T12:14:33;3.03;;;1.10;;
3379;SDS011;1703;51.964;7.642;2023-03-23T12:17:11;4.20;;;1.33;;
3379;SDS011;1703;51.964;7.642;2023-03-23T12:19:50;2.63;;;1.43;;
3379;SDS011;1703;51.964;7.642;2023-03-23T12:22:33;3.10;;;1.27;;
3379;SDS011;1703;51.964;7.642;2023-03-23T12:25:12;10.80;;;1.43;;
3379;SDS011;1703;51.964;7.642;2023-03-23T12:28:00;2.10;;;1.20;;
3379;SDS011;1703;51.964;7.642;2023-03-23T12:30:34;5.73;;;1.10;;
3379;SDS011;1703;51.964;7.642;2023-03-23T12:33:11;3.17;;;1.63;;
3379;SDS011;1703;51.964;7.642;2023-03-23T12:35:48;7.10;;;1.70;;
3379;SDS011;1703;51.964;7.642;2023-03-23T12:38:26;3.90;;;1.03;;
3379;SDS011;1703;51.964;7.642;2023-03-23T12:41:10;4.07;;;1.20;;
3379;SDS011;1703;51.964;7.642;2023-03-23T12:43:45;1.77;;;0.93;;
3379;SDS011;1703;51.964;7.642;2023-03-23T12:49:04;1.23;;;0.90;;
3379;SDS011;1703;51.964;7.642;2023-03-23T12:51:41;1.53;;;1.03;;
3379;SDS011;1703;51.964;7.642;2023-03-23T12:54:15;1.70;;;1.13;;
3379;SDS011;1703;51.964;7.642;2023-03-23T12:56:52;3.00;;;1.40;;
3379;SDS011;1703;51.964;7.642;2023-03-23T12:59:25;3.80;;;1.00;;
3379;SDS011;1703;51.964;7.642;2023-03-23T13:01:59;2.70;;;1.17;;
3379;SDS011;1703;51.964;7.642;2023-03-23T13:04:39;2.73;;;1.50;;
3379;SDS011;1703;51.964;7.642;2023-03-23T13:07:12;2.90;;;1.20;;
3379;SDS011;1703;51.964;7.642;2023-03-23T13:09:46;2.50;;;1.40;;
3379;SDS011;1703;51.964;7.642;2023-03-23T13:12:18;2.33;;;1.33;;
3379;SDS011;1703;51.964;7.642;2023-03-23T13:14:48;3.53;;;1.50;;
3379;SDS011;1703;51.964;7.642;2023-03-23T13:17:24;2.23;;;1.60;;
3379;SDS011;1703;51.964;7.642;2023-03-23T13:20:20;7.20;;;2.23;;
3379;SDS011;1703;51.964;7.642;2023-03-23T13:22:59;1.97;;;1.63;;
3379;SDS011;1703;51.964;7.642;2023-03-23T13:25:37;1.73;;;1.63;;
3379;SDS011;1703;51.964;7.642;2023-03-23T13:28:14;3.60;;;2.60;;
3379;SDS011;1703;51.964;7.642;2023-03-23T13:30:52;2.60;;;2.23;;
3379;SDS011;1703;51.964;7.642;2023-03-23T13:33:20;2.40;;;2.20;;
3379;SDS011;1703;51.964;7.642;2023-03-23T13:35:48;3.10;;;2.00;;
3379;SDS011;1703;51.964;7.642;2023-03-23T13:38:19;5.43;;;2.73;;
3379;SDS011;1703;51.964;7.642;2023-03-23T13:40:49;4.30;;;2.40;;
3379;SDS011;1703;51.964;7.642;2023-03-23T13:43:25;4.70;;;4.40;;
3379;SDS011;1703;51.964;7.642;2023-03-23T13:45:53;3.00;;;2.80;;
3379;SDS011;1703;51.964;7.642;2023-03-23T13:48:22;5.60;;;3.80;;
3379;SDS011;1703;51.964;7.642;2023-03-23T13:50:51;4.17;;;3.83;;
3379;SDS011;1703;51.964;7.642;2023-03-23T13:53:26;5.00;;;3.67;;
3379;SDS011;1703;51.964;7.642;2023-03-23T13:56:05;4.57;;;3.30;;
3379;SDS011;1703;51.964;7.642;2023-03-23T13:58:45;3.90;;;3.60;;
3379;SDS011;1703;51.964;7.642;2023-03-23T14:01:15;4.13;;;3.73;;
3379;SDS011;1703;51.964;7.642;2023-03-23T14:03:45;5.60;;;4.13;;
3379;SDS011;1703;51.964;7.642;2023-03-23T14:06:18;5.10;;;3.80;;
3379;SDS011;1703;51.964;7.642;2023-03-23T14:09:05;4.93;;;4.20;;
3379;SDS011;1703;51.964;7.642;2023-03-23T14:11:34;4.47;;;4.07;;
3379;SDS011;1703;51.964;7.642;2023-03-23T14:14:14;6.00;;;4.90;;
3379;SDS011;1703;51.964;7.642;2023-03-23T14:16:45;4.60;;;4.10;;
3379;SDS011;1703;51.964;7.642;2023-03-23T14:19:17;7.93;;;4.90;;
3379;SDS011;1703;51.964;7.642;2023-03-23T14:21:51;5.70;;;5.10;;
3379;SDS011;1703;51.964;7.642;2023-03-23T14:24:23;4.87;;;4.20;;
3379;SDS011;1703;51.964;7.642;2023-03-23T14:26:51;5.20;;;4.60;;
3379;SDS011;1703;51.964;7.642;2023-03-23T14:29:27;5.93;;;4.67;;
3379;SDS011;1703;51.964;7.642;2023-03-23T14:31:54;4.33;;;3.90;;
3379;SDS011;1703;51.964;7.642;2023-03-23T14:34:23;5.63;;;5.07;;
3379;SDS011;1703;51.964;7.642;2023-03-23T14:36:52;7.80;;;5.30;;
3379;SDS011;1703;51.964;7.642;2023-03-23T14:39:24;5.60;;;5.10;;
3379;SDS011;1703;51.964;7.642;2023-03-23T14:41:52;5.67;;;5.27;;
3379;SDS011;1703;51.964;7.642;2023-03-23T14:44:21;6.17;;;5.47;;
3379;SDS011;1703;51.964;7.642;2023-03-23T14:46:51;7.00;;;6.30;;
3379;SDS011;1703;51.964;7.642;2023-03-23T14:49:21;6.27;;;5.60;;
3379;SDS011;1703;51.964;7.642;2023-03-23T14:51:56;7.10;;;6.07;;
3379;SDS011;1703;51.964;7.642;2023-03-23T14:54:31;11.40;;;6.10;;
3379;SDS011;1703;51.964;7.642;2023-03-23T14:57:02;8.27;;;5.90;;
3379;SDS011;1703;51.964;7.642;2023-03-23T14:59:35;8.23;;;6.10;;
3379;SDS011;1703;51.964;7.642;2023-03-23T15:02:02;6.40;;;4.67;;
3379;SDS011;1703;51.964;7.642;2023-03-23T15:04:29;4.90;;;4.37;;
3379;SDS011;1703;51.964;7.642;2023-03-23T15:06:58;5.50;;;5.00;;
3379;SDS011;1703;51.964;7.642;2023-03-23T15:09:29;8.97;;;4.10;;
3379;SDS011;1703;51.964;7.642;2023-03-23T15:11:58;5.23;;;4.70;;
3379;SDS011;1703;51.964;7.642;2023-03-23T15:14:27;5.23;;;4.20;;
3379;SDS011;1703;51.964;7.642;2023-03-23T15:16:57;5.00;;;4.10;;
3379;SDS011;1703;51.964;7.642;2023-03-23T15:19:26;5.30;;;3.93;;
3379;SDS011;1703;51.964;7.642;2023-03-23T15:22:03;6.13;;;5.40;;
3379;SDS011;1703;51.964;7.642;2023-03-23T15:24:33;10.07;;;4.70;;
3379;SDS011;1703;51.964;7.642;2023-03-23T15:27:12;5.93;;;4.73;;
3379;SDS011;1703;51.964;7.642;2023-03-23T15:29:47;12.90;;;4.87;;
3379;SDS011;1703;51.964;7.642;2023-03-23T15:32:25;7.10;;;4.80;;
3379;SDS011;1703;51.964;7.642;2023-03-23T15:34:54;7.57;;;4.10;;
3379;SDS011;1703;51.964;7.642;2023-03-23T15:37:24;5.20;;;4.23;;
3379;SDS011;1703;51.964;7.642;2023-03-23T15:39:54;9.13;;;4.57;;
3379;SDS011;1703;51.964;7.642;2023-03-23T15:42:23;5.77;;;3.90;;
3379;SDS011;1703;51.964;7.642;2023-03-23T15:44:55;5.83;;;3.20;;
3379;SDS011;1703;51.964;7.642;2023-03-23T15:47:38;4.00;;;3.03;;
3379;SDS011;1703;51.964;7.642;2023-03-23T15:50:13;6.47;;;3.80;;
3379;SDS011;1703;51.964;7.642;2023-03-23T15:52:44;6.00;;;3.50;;
3379;SDS011;1703;51.964;7.642;2023-03-23T15:55:19;5.83;;;3.60;;
3379;SDS011;1703;51.964;7.642;2023-03-23T15:57:48;10.90;;;4.23;;
3379;SDS011;1703;51.964;7.642;2023-03-23T16:00:16;6.70;;;4.20;;
3379;SDS011;1703;51.964;7.642;2023-03-23T16:02:44;7.90;;;4.70;;